KRKD/RKD METAR and TAF weather

Enter ICAO airport designator
Station Type Date Time Source
KRKD METAR 2020/01/28 20:56 UTC NOAA

KRKD 282056Z AUTO VRB05KT OVC041 00/M07 A2973 RMK AO2 SLP067 T00001072 53015 PWINO FZRANO $


Station Type Date Time Source
KRKD Decoded METAR 2020/01/28 20:56 UTC NOAA

Rockland, Knox County Regional Airport, ME, United States (KRKD) 44-04N 069-06W
Jan 28, 2020 - 03:56 PM EST / 2020.01.28 2056 UTC
Wind: Variable at 6 MPH (5 KT):0
Sky conditions: overcast
Temperature: 32.0 F (0.0 C)
Windchill: 26 F (-3 C):1
Dew Point: 19.0 F (-7.2 C)
Relative Humidity: 58%
Pressure (altimeter): 29.73 in. Hg (1006 hPa)
Pressure tendency: 0.04 inches (1.5 hPa) higher than three hours ago
ob: KRKD 282056Z AUTO VRB05KT OVC041 00/M07 A2973 RMK AO2 SLP067 T00001072 53015 PWINO FZRANO
cycle: 21

Station Type Date Time Source
KRKD TAF 2020/01/28 18:22 UTC NOAA

TAF KRKD 281720Z 2818/2918 01016KT P6SM BKN040
FM290300 35014KT P6SM SKC

Example: see airport list